sensor_id;sensor_type;location;lat;lon;timestamp;temperature;humidity
65203;HTU21D;51788;45.124;38.966;2022-08-21T00:01:26;25.56;76.21
65203;HTU21D;51788;45.124;38.966;2022-08-21T00:03:54;25.56;76.15
65203;HTU21D;51788;45.124;38.966;2022-08-21T00:06:21;25.53;76.18
65203;HTU21D;51788;45.124;38.966;2022-08-21T00:08:48;25.51;76.21
65203;HTU21D;51788;45.124;38.966;2022-08-21T00:11:14;25.49;76.26
65203;HTU21D;51788;45.124;38.966;2022-08-21T00:13:41;25.46;76.32
65203;HTU21D;51788;45.124;38.966;2022-08-21T00:16:06;25.45;76.36
65203;HTU21D;51788;45.124;38.966;2022-08-21T00:18:33;25.44;76.39
65203;HTU21D;51788;45.124;38.966;2022-08-21T00:20:59;25.40;76.44
65203;HTU21D;51788;45.124;38.966;2022-08-21T00:23:25;25.36;76.56
65203;HTU21D;51788;45.124;38.966;2022-08-21T00:25:51;25.33;76.59
65203;HTU21D;51788;45.124;38.966;2022-08-21T00:28:17;25.29;76.66
65203;HTU21D;51788;45.124;38.966;2022-08-21T00:30:44;25.25;76.76
65203;HTU21D;51788;45.124;38.966;2022-08-21T00:33:11;25.19;76.89
65203;HTU21D;51788;45.124;38.966;2022-08-21T00:35:40;25.17;77.02
65203;HTU21D;51788;45.124;38.966;2022-08-21T00:38:07;25.16;76.99
65203;HTU21D;51788;45.124;38.966;2022-08-21T00:40:47;25.15;77.02
65203;HTU21D;51788;45.124;38.966;2022-08-21T00:43:16;25.13;77.02
65203;HTU21D;51788;45.124;38.966;2022-08-21T00:45:43;25.12;77.06
65203;HTU21D;51788;45.124;38.966;2022-08-21T00:48:10;25.05;77.17
65203;HTU21D;51788;45.124;38.966;2022-08-21T00:50:40;25.01;77.35
65203;HTU21D;51788;45.124;38.966;2022-08-21T00:53:08;24.93;77.40
65203;HTU21D;51788;45.124;38.966;2022-08-21T00:55:37;24.89;77.58
65203;HTU21D;51788;45.124;38.966;2022-08-21T00:58:06;24.87;77.68
65203;HTU21D;51788;45.124;38.966;2022-08-21T01:00:36;24.85;77.76
65203;HTU21D;51788;45.124;38.966;2022-08-21T01:03:10;24.80;77.84
65203;HTU21D;51788;45.124;38.966;2022-08-21T01:05:37;24.79;77.81
65203;HTU21D;51788;45.124;38.966;2022-08-21T01:08:04;24.80;77.82
65203;HTU21D;51788;45.124;38.966;2022-08-21T01:10:30;24.76;77.92
65203;HTU21D;51788;45.124;38.966;2022-08-21T01:12:57;24.75;78.02
65203;HTU21D;51788;45.124;38.966;2022-08-21T01:15:28;24.77;78.04
65203;HTU21D;51788;45.124;38.966;2022-08-21T01:17:56;24.77;77.95
65203;HTU21D;51788;45.124;38.966;2022-08-21T01:20:22;24.77;77.98
65203;HTU21D;51788;45.124;38.966;2022-08-21T01:22:48;24.73;78.14
65203;HTU21D;51788;45.124;38.966;2022-08-21T01:25:16;24.69;78.29
65203;HTU21D;51788;45.124;38.966;2022-08-21T01:27:43;24.64;78.40
65203;HTU21D;51788;45.124;38.966;2022-08-21T01:30:16;24.61;78.54
65203;HTU21D;51788;45.124;38.966;2022-08-21T01:32:43;24.60;78.40
65203;HTU21D;51788;45.124;38.966;2022-08-21T01:35:10;24.59;78.40
65203;HTU21D;51788;45.124;38.966;2022-08-21T01:37:37;24.60;78.37
65203;HTU21D;51788;45.124;38.966;2022-08-21T01:40:04;24.61;78.36
65203;HTU21D;51788;45.124;38.966;2022-08-21T01:42:31;24.58;78.34
65203;HTU21D;51788;45.124;38.966;2022-08-21T01:44:57;24.57;78.30
65203;HTU21D;51788;45.124;38.966;2022-08-21T01:47:24;24.55;78.15
65203;HTU21D;51788;45.124;38.966;2022-08-21T01:49:50;24.50;78.11
65203;HTU21D;51788;45.124;38.966;2022-08-21T01:52:16;24.47;77.88
65203;HTU21D;51788;45.124;38.966;2022-08-21T01:54:42;24.45;77.60
65203;HTU21D;51788;45.124;38.966;2022-08-21T01:57:09;24.42;77.18
65203;HTU21D;51788;45.124;38.966;2022-08-21T01:59:35;24.42;76.83
65203;HTU21D;51788;45.124;38.966;2022-08-21T02:02:01;24.40;76.54
65203;HTU21D;51788;45.124;38.966;2022-08-21T02:04:27;24.43;76.05
65203;HTU21D;51788;45.124;38.966;2022-08-21T02:06:53;24.46;75.74
65203;HTU21D;51788;45.124;38.966;2022-08-21T02:09:19;24.48;75.24
65203;HTU21D;51788;45.124;38.966;2022-08-21T02:11:47;24.49;74.86
65203;HTU21D;51788;45.124;38.966;2022-08-21T02:14:15;24.51;74.41
65203;HTU21D;51788;45.124;38.966;2022-08-21T02:16:43;24.51;74.01
65203;HTU21D;51788;45.124;38.966;2022-08-21T02:19:10;24.54;73.70
65203;HTU21D;51788;45.124;38.966;2022-08-21T02:21:37;24.55;73.58
65203;HTU21D;51788;45.124;38.966;2022-08-21T02:24:04;24.57;73.25
65203;HTU21D;51788;45.124;38.966;2022-08-21T02:26:30;24.58;73.02
65203;HTU21D;51788;45.124;38.966;2022-08-21T02:28:56;24.56;72.93
65203;HTU21D;51788;45.124;38.966;2022-08-21T02:31:22;24.55;72.89
65203;HTU21D;51788;45.124;38.966;2022-08-21T02:33:48;24.55;72.73
65203;HTU21D;51788;45.124;38.966;2022-08-21T02:36:14;24.53;72.67
65203;HTU21D;51788;45.124;38.966;2022-08-21T02:38:41;24.55;72.47
65203;HTU21D;51788;45.124;38.966;2022-08-21T02:41:12;24.49;72.24
65203;HTU21D;51788;45.124;38.966;2022-08-21T02:43:39;24.48;72.08
65203;HTU21D;51788;45.124;38.966;2022-08-21T02:46:06;24.44;71.84
65203;HTU21D;51788;45.124;38.966;2022-08-21T02:48:33;24.44;71.21
65203;HTU21D;51788;45.124;38.966;2022-08-21T02:51:04;24.42;70.83
65203;HTU21D;51788;45.124;38.966;2022-08-21T02:53:31;24.40;70.42
65203;HTU21D;51788;45.124;38.966;2022-08-21T02:56:00;24.40;70.31
65203;HTU21D;51788;45.124;38.966;2022-08-21T02:58:29;24.38;69.81
65203;HTU21D;51788;45.124;38.966;2022-08-21T03:00:57;24.36;69.69
65203;HTU21D;51788;45.124;38.966;2022-08-21T03:03:24;24.35;69.52
65203;HTU21D;51788;45.124;38.966;2022-08-21T03:05:51;24.32;69.49
65203;HTU21D;51788;45.124;38.966;2022-08-21T03:08:17;24.31;69.55
65203;HTU21D;51788;45.124;38.966;2022-08-21T03:10:46;24.32;69.40
65203;HTU21D;51788;45.124;38.966;2022-08-21T03:13:14;24.35;69.20
65203;HTU21D;51788;45.124;38.966;2022-08-21T03:15:41;24.38;68.92
65203;HTU21D;51788;45.124;38.966;2022-08-21T03:18:08;24.40;68.99
65203;HTU21D;51788;45.124;38.966;2022-08-21T03:20:36;24.44;68.86
65203;HTU21D;51788;45.124;38.966;2022-08-21T03:23:04;24.44;68.66
65203;HTU21D;51788;45.124;38.966;2022-08-21T03:25:30;24.45;68.46
65203;HTU21D;51788;45.124;38.966;2022-08-21T03:28:01;24.44;68.59
65203;HTU21D;51788;45.124;38.966;2022-08-21T03:30:27;24.45;68.52
65203;HTU21D;51788;45.124;38.966;2022-08-21T03:32:53;24.48;68.41
65203;HTU21D;51788;45.124;38.966;2022-08-21T03:35:20;24.53;68.31
65203;HTU21D;51788;45.124;38.966;2022-08-21T03:37:46;24.53;68.14
65203;HTU21D;51788;45.124;38.966;2022-08-21T03:40:16;24.55;68.05
65203;HTU21D;51788;45.124;38.966;2022-08-21T03:42:42;24.54;68.04
65203;HTU21D;51788;45.124;38.966;2022-08-21T03:45:09;24.59;67.88
65203;HTU21D;51788;45.124;38.966;2022-08-21T03:47:35;24.61;67.75
65203;HTU21D;51788;45.124;38.966;2022-08-21T03:50:03;24.60;67.75
65203;HTU21D;51788;45.124;38.966;2022-08-21T03:52:29;24.65;67.59
65203;HTU21D;51788;45.124;38.966;2022-08-21T03:54:56;24.62;67.47
65203;HTU21D;51788;45.124;38.966;2022-08-21T03:57:22;24.61;67.65
65203;HTU21D;51788;45.124;38.966;2022-08-21T03:59:48;24.58;67.56
65203;HTU21D;51788;45.124;38.966;2022-08-21T04:02:17;24.54;67.58
65203;HTU21D;51788;45.124;38.966;2022-08-21T04:04:45;24.48;67.49
65203;HTU21D;51788;45.124;38.966;2022-08-21T04:07:11;24.46;67.75
65203;HTU21D;51788;45.124;38.966;2022-08-21T04:09:37;24.46;67.73
65203;HTU21D;51788;45.124;38.966;2022-08-21T04:12:03;24.47;67.55
65203;HTU21D;51788;45.124;38.966;2022-08-21T04:14:29;24.46;67.43
65203;HTU21D;51788;45.124;38.966;2022-08-21T04:16:55;24.44;67.27
65203;HTU21D;51788;45.124;38.966;2022-08-21T04:19:21;24.41;67.30
65203;HTU21D;51788;45.124;38.966;2022-08-21T04:21:48;24.40;67.51
65203;HTU21D;51788;45.124;38.966;2022-08-21T04:24:15;24.44;67.48
65203;HTU21D;51788;45.124;38.966;2022-08-21T04:26:41;24.51;67.21
65203;HTU21D;51788;45.124;38.966;2022-08-21T04:29:07;24.53;67.09
65203;HTU21D;51788;45.124;38.966;2022-08-21T04:31:35;24.46;67.24
65203;HTU21D;51788;45.124;38.966;2022-08-21T04:34:03;24.45;67.37
65203;HTU21D;51788;45.124;38.966;2022-08-21T04:36:31;24.44;67.46
65203;HTU21D;51788;45.124;38.966;2022-08-21T04:38:57;24.42;67.45
65203;HTU21D;51788;45.124;38.966;2022-08-21T04:41:23;24.43;67.45
65203;HTU21D;51788;45.124;38.966;2022-08-21T04:43:49;24.38;67.45
65203;HTU21D;51788;45.124;38.966;2022-08-21T04:46:15;24.33;67.59
65203;HTU21D;51788;45.124;38.966;2022-08-21T04:48:41;24.36;67.56
65203;HTU21D;51788;45.124;38.966;2022-08-21T04:51:12;24.38;67.63
65203;HTU21D;51788;45.124;38.966;2022-08-21T04:53:43;24.39;67.67
65203;HTU21D;51788;45.124;38.966;2022-08-21T04:56:17;24.47;67.51
65203;HTU21D;51788;45.124;38.966;2022-08-21T04:58:45;24.57;67.32
65203;HTU21D;51788;45.124;38.966;2022-08-21T05:01:18;24.65;66.88
65203;HTU21D;51788;45.124;38.966;2022-08-21T05:03:46;24.69;66.56
65203;HTU21D;51788;45.124;38.966;2022-08-21T05:06:15;24.65;66.69
65203;HTU21D;51788;45.124;38.966;2022-08-21T05:08:45;24.71;66.62
65203;HTU21D;51788;45.124;38.966;2022-08-21T05:11:13;24.74;66.64
65203;HTU21D;51788;45.124;38.966;2022-08-21T05:13:39;24.78;66.56
65203;HTU21D;51788;45.124;38.966;2022-08-21T05:16:07;24.84;66.43
65203;HTU21D;51788;45.124;38.966;2022-08-21T05:18:33;24.89;66.49
65203;HTU21D;51788;45.124;38.966;2022-08-21T05:20:59;25.01;66.38
65203;HTU21D;51788;45.124;38.966;2022-08-21T05:23:25;25.15;66.02
65203;HTU21D;51788;45.124;38.966;2022-08-21T05:25:52;25.24;65.70
65203;HTU21D;51788;45.124;38.966;2022-08-21T05:28:19;25.33;65.33
65203;HTU21D;51788;45.124;38.966;2022-08-21T05:30:45;25.36;65.18
65203;HTU21D;51788;45.124;38.966;2022-08-21T05:33:11;25.44;65.15
65203;HTU21D;51788;45.124;38.966;2022-08-21T05:35:37;25.54;64.72
65203;HTU21D;51788;45.124;38.966;2022-08-21T05:38:04;25.57;64.56
65203;HTU21D;51788;45.124;38.966;2022-08-21T05:40:31;25.57;64.70
65203;HTU21D;51788;45.124;38.966;2022-08-21T05:42:57;25.58;64.66
65203;HTU21D;51788;45.124;38.966;2022-08-21T05:45:30;25.62;64.67
65203;HTU21D;51788;45.124;38.966;2022-08-21T05:47:56;25.63;64.68
65203;HTU21D;51788;45.124;38.966;2022-08-21T05:50:22;25.68;64.63
65203;HTU21D;51788;45.124;38.966;2022-08-21T05:52:48;25.78;64.39
65203;HTU21D;51788;45.124;38.966;2022-08-21T05:55:14;25.84;64.27
65203;HTU21D;51788;45.124;38.966;2022-08-21T05:57:40;25.96;63.97
65203;HTU21D;51788;45.124;38.966;2022-08-21T06:00:10;26.06;63.69
65203;HTU21D;51788;45.124;38.966;2022-08-21T06:02:40;26.08;63.59
65203;HTU21D;51788;45.124;38.966;2022-08-21T06:05:07;26.10;63.60
65203;HTU21D;51788;45.124;38.966;2022-08-21T06:07:33;26.18;63.36
65203;HTU21D;51788;45.124;38.966;2022-08-21T06:09:59;26.21;63.33
65203;HTU21D;51788;45.124;38.966;2022-08-21T06:12:25;26.34;63.39
65203;HTU21D;51788;45.124;38.966;2022-08-21T06:14:51;26.53;62.95
65203;HTU21D;51788;45.124;38.966;2022-08-21T06:17:18;26.61;62.73
65203;HTU21D;51788;45.124;38.966;2022-08-21T06:19:44;26.60;62.63
65203;HTU21D;51788;45.124;38.966;2022-08-21T06:22:10;26.56;62.90
65203;HTU21D;51788;45.124;38.966;2022-08-21T06:24:36;26.55;62.88
65203;HTU21D;51788;45.124;38.966;2022-08-21T06:27:06;26.57;62.91
65203;HTU21D;51788;45.124;38.966;2022-08-21T06:29:33;26.63;62.92
65203;HTU21D;51788;45.124;38.966;2022-08-21T06:32:00;26.66;62.70
65203;HTU21D;51788;45.124;38.966;2022-08-21T06:34:26;26.69;62.52
65203;HTU21D;51788;45.124;38.966;2022-08-21T06:36:52;26.70;62.69
65203;HTU21D;51788;45.124;38.966;2022-08-21T06:39:18;26.82;62.53
65203;HTU21D;51788;45.124;38.966;2022-08-21T06:41:45;26.99;62.36
65203;HTU21D;51788;45.124;38.966;2022-08-21T06:44:11;27.13;62.18
65203;HTU21D;51788;45.124;38.966;2022-08-21T06:46:37;27.28;61.94
65203;HTU21D;51788;45.124;38.966;2022-08-21T06:49:03;27.35;61.60
65203;HTU21D;51788;45.124;38.966;2022-08-21T06:51:30;27.42;61.70
65203;HTU21D;51788;45.124;38.966;2022-08-21T06:53:56;27.43;61.35
65203;HTU21D;51788;45.124;38.966;2022-08-21T06:56:22;27.39;61.59
65203;HTU21D;51788;45.124;38.966;2022-08-21T06:58:48;27.38;61.64
65203;HTU21D;51788;45.124;38.966;2022-08-21T07:01:14;27.46;61.73
65203;HTU21D;51788;45.124;38.966;2022-08-21T07:03:42;27.68;61.34
65203;HTU21D;51788;45.124;38.966;2022-08-21T07:06:09;27.73;60.99
65203;HTU21D;51788;45.124;38.966;2022-08-21T07:08:36;27.76;61.13
65203;HTU21D;51788;45.124;38.966;2022-08-21T07:11:05;27.96;60.82
65203;HTU21D;51788;45.124;38.966;2022-08-21T07:13:32;28.01;60.60
65203;HTU21D;51788;45.124;38.966;2022-08-21T07:15:59;28.02;60.48
65203;HTU21D;51788;45.124;38.966;2022-08-21T07:18:24;28.09;60.30
65203;HTU21D;51788;45.124;38.966;2022-08-21T07:20:50;28.20;60.09
65203;HTU21D;51788;45.124;38.966;2022-08-21T07:23:26;28.23;59.80
65203;HTU21D;51788;45.124;38.966;2022-08-21T07:25:53;28.23;59.84
65203;HTU21D;51788;45.124;38.966;2022-08-21T07:28:20;28.21;59.89
65203;HTU21D;51788;45.124;38.966;2022-08-21T07:30:51;28.25;59.89
65203;HTU21D;51788;45.124;38.966;2022-08-21T07:33:17;28.34;59.99
65203;HTU21D;51788;45.124;38.966;2022-08-21T07:35:43;28.49;59.72
65203;HTU21D;51788;45.124;38.966;2022-08-21T07:38:09;28.73;59.51
65203;HTU21D;51788;45.124;38.966;2022-08-21T07:40:36;28.92;59.02
65203;HTU21D;51788;45.124;38.966;2022-08-21T07:43:02;29.08;58.43
65203;HTU21D;51788;45.124;38.966;2022-08-21T07:45:28;29.04;58.49
65203;HTU21D;51788;45.124;38.966;2022-08-21T07:47:55;28.94;58.80
65203;HTU21D;51788;45.124;38.966;2022-08-21T07:50:21;28.95;58.76
65203;HTU21D;51788;45.124;38.966;2022-08-21T07:52:47;28.97;58.77
65203;HTU21D;51788;45.124;38.966;2022-08-21T07:55:16;28.99;58.64
65203;HTU21D;51788;45.124;38.966;2022-08-21T07:57:43;28.98;58.74
65203;HTU21D;51788;45.124;38.966;2022-08-21T08:00:13;28.97;58.79
65203;HTU21D;51788;45.124;38.966;2022-08-21T08:02:40;28.97;59.08
65203;HTU21D;51788;45.124;38.966;2022-08-21T08:05:09;28.91;59.25
65203;HTU21D;51788;45.124;38.966;2022-08-21T08:07:37;28.90;59.34
65203;HTU21D;51788;45.124;38.966;2022-08-21T08:10:05;28.94;59.27
65203;HTU21D;51788;45.124;38.966;2022-08-21T08:12:34;29.05;59.19
65203;HTU21D;51788;45.124;38.966;2022-08-21T08:15:00;29.19;58.90
65203;HTU21D;51788;45.124;38.966;2022-08-21T08:17:27;29.36;58.35
65203;HTU21D;51788;45.124;38.966;2022-08-21T08:19:53;29.42;58.24
65203;HTU21D;51788;45.124;38.966;2022-08-21T08:22:21;29.42;58.36
65203;HTU21D;51788;45.124;38.966;2022-08-21T08:24:50;29.46;58.42
65203;HTU21D;51788;45.124;38.966;2022-08-21T08:27:17;29.52;58.16
65203;HTU21D;51788;45.124;38.966;2022-08-21T08:29:44;29.51;58.09
65203;HTU21D;51788;45.124;38.966;2022-08-21T08:32:10;29.49;58.20
65203;HTU21D;51788;45.124;38.966;2022-08-21T08:34:37;29.54;58.16
65203;HTU21D;51788;45.124;38.966;2022-08-21T08:37:05;29.60;58.06
65203;HTU21D;51788;45.124;38.966;2022-08-21T08:39:32;29.65;57.84
65203;HTU21D;51788;45.124;38.966;2022-08-21T08:42:12;29.71;57.78
65203;HTU21D;51788;45.124;38.966;2022-08-21T08:44:43;29.79;57.93
65203;HTU21D;51788;45.124;38.966;2022-08-21T08:47:16;29.92;57.68
65203;HTU21D;51788;45.124;38.966;2022-08-21T08:49:55;30.00;57.39
65203;HTU21D;51788;45.124;38.966;2022-08-21T08:52:33;30.02;57.47
65203;HTU21D;51788;45.124;38.966;2022-08-21T08:55:12;30.09;57.13
65203;HTU21D;51788;45.124;38.966;2022-08-21T08:57:44;30.13;56.87
65203;HTU21D;51788;45.124;38.966;2022-08-21T09:00:13;30.13;56.93
65203;HTU21D;51788;45.124;38.966;2022-08-21T09:02:41;30.20;56.77
65203;HTU21D;51788;45.124;38.966;2022-08-21T09:05:17;30.27;56.71
65203;HTU21D;51788;45.124;38.966;2022-08-21T09:07:58;30.37;56.30
65203;HTU21D;51788;45.124;38.966;2022-08-21T09:13:24;30.45;56.29
65203;HTU21D;51788;45.124;38.966;2022-08-21T09:16:12;30.53;56.07
65203;HTU21D;51788;45.124;38.966;2022-08-21T09:18:53;30.54;55.98
65203;HTU21D;51788;45.124;38.966;2022-08-21T09:21:31;30.53;55.92
65203;HTU21D;51788;45.124;38.966;2022-08-21T09:27:10;30.67;55.54
65203;HTU21D;51788;45.124;38.966;2022-08-21T09:29:43;30.72;55.42
65203;HTU21D;51788;45.124;38.966;2022-08-21T09:32:18;30.81;55.23
65203;HTU21D;51788;45.124;38.966;2022-08-21T09:43:03;30.93;54.67
65203;HTU21D;51788;45.124;38.966;2022-08-21T09:45:30;30.95;54.49
65203;HTU21D;51788;45.124;38.966;2022-08-21T09:47:56;31.02;54.58
65203;HTU21D;51788;45.124;38.966;2022-08-21T09:50:33;31.14;54.42
65203;HTU21D;51788;45.124;38.966;2022-08-21T09:53:00;31.31;54.12
65203;HTU21D;51788;45.124;38.966;2022-08-21T09:58:15;31.45;53.66
65203;HTU21D;51788;45.124;38.966;2022-08-21T10:00:42;31.45;53.30
65203;HTU21D;51788;45.124;38.966;2022-08-21T10:03:15;31.48;52.93
65203;HTU21D;51788;45.124;38.966;2022-08-21T10:05:52;31.43;52.78
65203;HTU21D;51788;45.124;38.966;2022-08-21T10:08:22;31.42;52.87
65203;HTU21D;51788;45.124;38.966;2022-08-21T10:11:03;31.56;52.35
65203;HTU21D;51788;45.124;38.966;2022-08-21T10:16:57;32.34;50.31
65203;HTU21D;51788;45.124;38.966;2022-08-21T10:25:12;31.93;50.87
65203;HTU21D;51788;45.124;38.966;2022-08-21T10:35:44;31.85;51.37
65203;HTU21D;51788;45.124;38.966;2022-08-21T10:38:34;31.89;51.10
65203;HTU21D;51788;45.124;38.966;2022-08-21T10:41:26;31.93;51.20
65203;HTU21D;51788;45.124;38.966;2022-08-21T10:51:56;32.11;50.99
65203;HTU21D;51788;45.124;38.966;2022-08-21T10:54:42;32.17;50.79
65203;HTU21D;51788;45.124;38.966;2022-08-21T10:57:19;32.19;50.37
65203;HTU21D;51788;45.124;38.966;2022-08-21T10:59:57;32.17;50.21
65203;HTU21D;51788;45.124;38.966;2022-08-21T11:04:57;32.17;50.40
65203;HTU21D;51788;45.124;38.966;2022-08-21T11:07:43;32.22;50.53
65203;HTU21D;51788;45.124;38.966;2022-08-21T11:12:47;32.39;50.03
65203;HTU21D;51788;45.124;38.966;2022-08-21T11:15:46;32.35;50.00
65203;HTU21D;51788;45.124;38.966;2022-08-21T11:18:31;32.33;50.28
65203;HTU21D;51788;45.124;38.966;2022-08-21T11:21:25;32.39;49.73
65203;HTU21D;51788;45.124;38.966;2022-08-21T11:24:24;32.38;50.19
65203;HTU21D;51788;45.124;38.966;2022-08-21T11:27:08;32.42;50.33
65203;HTU21D;51788;45.124;38.966;2022-08-21T11:29:41;32.46;50.36
65203;HTU21D;51788;45.124;38.966;2022-08-21T11:32:31;32.53;49.54
65203;HTU21D;51788;45.124;38.966;2022-08-21T11:43:46;32.66;49.75
65203;HTU21D;51788;45.124;38.966;2022-08-21T11:46:40;32.67;49.55
65203;HTU21D;51788;45.124;38.966;2022-08-21T11:57:21;32.63;49.40
65203;HTU21D;51788;45.124;38.966;2022-08-21T12:00:04;32.59;49.68
65203;HTU21D;51788;45.124;38.966;2022-08-21T12:02:49;32.64;49.95
65203;HTU21D;51788;45.124;38.966;2022-08-21T12:05:36;32.70;49.66
65203;HTU21D;51788;45.124;38.966;2022-08-21T12:08:15;32.76;49.59
65203;HTU21D;51788;45.124;38.966;2022-08-21T12:13:39;32.81;49.37
65203;HTU21D;51788;45.124;38.966;2022-08-21T12:16:14;32.78;49.22
65203;HTU21D;51788;45.124;38.966;2022-08-21T12:18:42;32.74;49.48
65203;HTU21D;51788;45.124;38.966;2022-08-21T12:21:22;32.74;49.46
65203;HTU21D;51788;45.124;38.966;2022-08-21T12:29:23;32.83;49.00
65203;HTU21D;51788;45.124;38.966;2022-08-21T12:34:45;32.77;49.35
65203;HTU21D;51788;45.124;38.966;2022-08-21T12:37:29;32.77;49.54
65203;HTU21D;51788;45.124;38.966;2022-08-21T12:40:03;32.79;49.50
65203;HTU21D;51788;45.124;38.966;2022-08-21T12:42:39;32.78;49.66
65203;HTU21D;51788;45.124;38.966;2022-08-21T12:45:41;32.82;49.83
65203;HTU21D;51788;45.124;38.966;2022-08-21T12:48:29;32.85;49.50
65203;HTU21D;51788;45.124;38.966;2022-08-21T12:51:05;32.84;49.70
65203;HTU21D;51788;45.124;38.966;2022-08-21T12:53:38;32.86;49.92
65203;HTU21D;51788;45.124;38.966;2022-08-21T12:56:11;32.91;49.73
65203;HTU21D;51788;45.124;38.966;2022-08-21T12:58:41;32.87;49.73
65203;HTU21D;51788;45.124;38.966;2022-08-21T13:01:34;32.85;49.98
65203;HTU21D;51788;45.124;38.966;2022-08-21T13:04:07;32.87;49.98
65203;HTU21D;51788;45.124;38.966;2022-08-21T13:06:42;32.89;49.99
65203;HTU21D;51788;45.124;38.966;2022-08-21T13:09:13;32.91;50.02
65203;HTU21D;51788;45.124;38.966;2022-08-21T13:11:41;32.90;50.11
65203;HTU21D;51788;45.124;38.966;2022-08-21T13:14:41;32.90;50.06
65203;HTU21D;51788;45.124;38.966;2022-08-21T13:17:09;32.91;49.66
65203;HTU21D;51788;45.124;38.966;2022-08-21T13:19:35;32.87;49.87
65203;HTU21D;51788;45.124;38.966;2022-08-21T13:22:02;32.86;49.95
65203;HTU21D;51788;45.124;38.966;2022-08-21T13:24:33;32.82;50.06
65203;HTU21D;51788;45.124;38.966;2022-08-21T13:27:00;32.81;49.96
65203;HTU21D;51788;45.124;38.966;2022-08-21T13:29:32;32.79;49.77
65203;HTU21D;51788;45.124;38.966;2022-08-21T13:32:03;32.74;49.89
65203;HTU21D;51788;45.124;38.966;2022-08-21T13:34:35;32.70;49.92
65203;HTU21D;51788;45.124;38.966;2022-08-21T13:37:03;32.64;50.21
65203;HTU21D;51788;45.124;38.966;2022-08-21T13:39:30;32.63;50.30
65203;HTU21D;51788;45.124;38.966;2022-08-21T13:41:59;32.63;50.32
65203;HTU21D;51788;45.124;38.966;2022-08-21T13:44:41;32.69;50.29
65203;HTU21D;51788;45.124;38.966;2022-08-21T13:47:10;32.73;50.10
65203;HTU21D;51788;45.124;38.966;2022-08-21T13:49:39;32.70;50.20
65203;HTU21D;51788;45.124;38.966;2022-08-21T13:52:21;32.69;49.76
65203;HTU21D;51788;45.124;38.966;2022-08-21T13:54:59;32.67;50.11
65203;HTU21D;51788;45.124;38.966;2022-08-21T13:57:32;32.68;50.18
65203;HTU21D;51788;45.124;38.966;2022-08-21T14:00:20;32.70;50.02
65203;HTU21D;51788;45.124;38.966;2022-08-21T14:02:51;32.68;49.68
65203;HTU21D;51788;45.124;38.966;2022-08-21T14:05:31;32.59;49.10
65203;HTU21D;51788;45.124;38.966;2022-08-21T14:08:08;32.53;49.26
65203;HTU21D;51788;45.124;38.966;2022-08-21T14:10:49;32.47;49.73
65203;HTU21D;51788;45.124;38.966;2022-08-21T14:13:32;32.47;49.63
65203;HTU21D;51788;45.124;38.966;2022-08-21T14:16:01;32.43;49.68
65203;HTU21D;51788;45.124;38.966;2022-08-21T14:18:28;32.44;49.59
65203;HTU21D;51788;45.124;38.966;2022-08-21T14:21:08;32.43;49.44
65203;HTU21D;51788;45.124;38.966;2022-08-21T14:23:35;32.41;49.42
65203;HTU21D;51788;45.124;38.966;2022-08-21T14:26:04;32.38;49.53
65203;HTU21D;51788;45.124;38.966;2022-08-21T14:28:33;32.37;49.33
65203;HTU21D;51788;45.124;38.966;2022-08-21T14:31:12;32.32;49.27
65203;HTU21D;51788;45.124;38.966;2022-08-21T14:33:39;32.32;49.53
65203;HTU21D;51788;45.124;38.966;2022-08-21T14:36:05;32.29;49.47
65203;HTU21D;51788;45.124;38.966;2022-08-21T14:38:31;32.25;49.64
65203;HTU21D;51788;45.124;38.966;2022-08-21T14:41:00;32.26;49.63
65203;HTU21D;51788;45.124;38.966;2022-08-21T14:43:30;32.24;49.77
65203;HTU21D;51788;45.124;38.966;2022-08-21T14:45:57;32.24;49.80
65203;HTU21D;51788;45.124;38.966;2022-08-21T14:48:23;32.23;49.90
65203;HTU21D;51788;45.124;38.966;2022-08-21T14:50:49;32.23;49.87
65203;HTU21D;51788;45.124;38.966;2022-08-21T14:53:16;32.20;49.82
65203;HTU21D;51788;45.124;38.966;2022-08-21T14:55:43;32.23;49.63
65203;HTU21D;51788;45.124;38.966;2022-08-21T14:58:27;32.17;49.86
65203;HTU21D;51788;45.124;38.966;2022-08-21T15:00:54;32.17;49.92
65203;HTU21D;51788;45.124;38.966;2022-08-21T15:03:20;32.19;49.86
65203;HTU21D;51788;45.124;38.966;2022-08-21T15:05:49;32.18;49.79
65203;HTU21D;51788;45.124;38.966;2022-08-21T15:08:16;32.17;49.88
65203;HTU21D;51788;45.124;38.966;2022-08-21T15:10:42;32.19;50.04
65203;HTU21D;51788;45.124;38.966;2022-08-21T15:13:08;32.18;50.11
65203;HTU21D;51788;45.124;38.966;2022-08-21T15:15:39;32.17;50.30
65203;HTU21D;51788;45.124;38.966;2022-08-21T15:18:05;32.17;50.38
65203;HTU21D;51788;45.124;38.966;2022-08-21T15:20:32;32.14;50.30
65203;HTU21D;51788;45.124;38.966;2022-08-21T15:22:58;32.11;50.50
65203;HTU21D;51788;45.124;38.966;2022-08-21T15:25:24;32.09;50.71
65203;HTU21D;51788;45.124;38.966;2022-08-21T15:27:50;32.07;50.82
65203;HTU21D;51788;45.124;38.966;2022-08-21T15:30:17;32.04;50.92
65203;HTU21D;51788;45.124;38.966;2022-08-21T15:32:42;32.01;51.04
65203;HTU21D;51788;45.124;38.966;2022-08-21T15:35:09;31.97;51.13
65203;HTU21D;51788;45.124;38.966;2022-08-21T15:37:35;31.92;51.30
65203;HTU21D;51788;45.124;38.966;2022-08-21T15:40:02;31.87;51.48
65203;HTU21D;51788;45.124;38.966;2022-08-21T15:42:29;31.82;51.69
65203;HTU21D;51788;45.124;38.966;2022-08-21T15:44:57;31.79;51.82
65203;HTU21D;51788;45.124;38.966;2022-08-21T15:47:32;31.72;52.04
65203;HTU21D;51788;45.124;38.966;2022-08-21T15:49:59;31.68;52.23
65203;HTU21D;51788;45.124;38.966;2022-08-21T15:52:25;31.61;52.42
65203;HTU21D;51788;45.124;38.966;2022-08-21T15:54:52;31.57;52.55
65203;HTU21D;51788;45.124;38.966;2022-08-21T15:57:21;31.52;52.73
65203;HTU21D;51788;45.124;38.966;2022-08-21T15:59:51;31.48;52.92
65203;HTU21D;51788;45.124;38.966;2022-08-21T16:02:22;31.42;53.14
65203;HTU21D;51788;45.124;38.966;2022-08-21T16:04:48;31.37;53.30
65203;HTU21D;51788;45.124;38.966;2022-08-21T16:07:15;31.31;53.49
65203;HTU21D;51788;45.124;38.966;2022-08-21T16:09:41;31.26;53.64
65203;HTU21D;51788;45.124;38.966;2022-08-21T16:12:11;31.21;53.78
65203;HTU21D;51788;45.124;38.966;2022-08-21T16:14:38;31.14;53.88
65203;HTU21D;51788;45.124;38.966;2022-08-21T16:17:06;31.09;54.04
65203;HTU21D;51788;45.124;38.966;2022-08-21T16:19:33;31.04;54.15
65203;HTU21D;51788;45.124;38.966;2022-08-21T16:22:00;30.99;54.28
65203;HTU21D;51788;45.124;38.966;2022-08-21T16:24:26;30.95;54.40
65203;HTU21D;51788;45.124;38.966;2022-08-21T16:26:52;30.90;54.49
65203;HTU21D;51788;45.124;38.966;2022-08-21T16:29:19;30.89;54.51
65203;HTU21D;51788;45.124;38.966;2022-08-21T16:31:46;30.84;54.62
65203;HTU21D;51788;45.124;38.966;2022-08-21T16:34:18;30.80;54.68